Time;durP1;ratioP1;P1;durP2;ratioP2;P2;SDS_P1;SDS_P2;PMS_P1;PMS_P2;Temp;Humidity;BMP_temperature;BMP_pressure;BME280_temperature;BME280_humidity;BME280_pressure;Samples;Min_cycle;Max_cycle;Signal;HPM_P1;HPM_P2
2023/09/05 00:02:05;;;;;;;4.63;2.83;;;28.40;48.00;;;;;;5024592;28;87535;-62
2023/09/05 00:04:35;;;;;;;2.93;2.63;;;28.40;48.00;;;;;;5040024;27;89818;-62
2023/09/05 00:07:03;;;;;;;2.50;2.30;;;28.30;48.00;;;;;;5040829;27;89289;-63
2023/09/05 00:09:32;;;;;;;3.60;2.60;;;28.30;48.00;;;;;;5040444;28;87890;-63
2023/09/05 00:12:00;;;;;;;4.37;2.67;;;28.30;48.10;;;;;;5039819;28;87533;-63
2023/09/05 00:14:29;;;;;;;2.90;2.50;;;28.30;48.10;;;;;;5040648;28;89887;-63
2023/09/05 00:16:57;;;;;;;4.67;1.80;;;28.30;48.20;;;;;;5038599;28;89961;-62
2023/09/05 00:19:25;;;;;;;3.73;2.33;;;28.30;48.80;;;;;;5037315;28;88764;-62
2023/09/05 00:21:54;;;;;;;2.83;2.23;;;28.20;48.10;;;;;;5039816;28;87701;-63
2023/09/05 00:24:27;;;;;;;2.60;2.40;;;28.20;48.10;;;;;;5039690;27;88530;-63
2023/09/05 00:26:56;;;;;;;3.40;2.00;;;28.20;48.10;;;;;;5039413;27;88047;-62
2023/09/05 00:29:26;;;;;;;1.97;1.73;;;28.20;48.10;;;;;;5039293;28;88599;-63
2023/09/05 00:31:54;;;;;;;1.70;1.47;;;28.20;48.20;;;;;;5038987;27;87813;-62
2023/09/05 00:34:22;;;;;;;1.67;1.57;;;28.10;48.10;;;;;;5039910;27;89669;-63
2023/09/05 00:36:52;;;;;;;2.83;1.73;;;28.10;48.20;;;;;;5039141;27;87900;-63
2023/09/05 00:39:21;;;;;;;4.13;1.80;;;28.10;48.20;;;;;;5040316;28;88889;-63
2023/09/05 00:41:49;;;;;;;4.33;2.00;;;28.10;48.20;;;;;;5042861;28;88023;-62
2023/09/05 00:44:18;;;;;;;3.00;1.70;;;28.00;48.20;;;;;;5039897;28;89721;-62
2023/09/05 00:46:47;;;;;;;2.73;1.83;;;28.00;48.20;;;;;;5042896;28;89103;-62
2023/09/05 00:49:15;;;;;;;1.90;1.70;;;28.00;48.20;;;;;;5042947;28;87721;-62
2023/09/05 00:51:45;;;;;;;1.90;1.47;;;28.00;48.20;;;;;;5043085;27;87649;-62
2023/09/05 00:54:14;;;;;;;1.57;1.47;;;28.00;48.20;;;;;;5042157;27;88769;-63
2023/09/05 00:56:43;;;;;;;2.10;1.33;;;27.90;48.20;;;;;;5042386;28;89227;-62
2023/09/05 00:59:11;;;;;;;2.03;1.50;;;27.90;48.20;;;;;;5042845;28;88879;-62
2023/09/05 01:01:39;;;;;;;1.83;1.57;;;27.90;48.20;;;;;;5040365;28;87651;-63
2023/09/05 01:04:07;;;;;;;1.87;1.43;;;27.90;48.20;;;;;;5042140;28;93389;-62
2023/09/05 01:06:39;;;;;;;2.27;1.53;;;27.90;48.20;;;;;;5042161;28;90176;-62
2023/09/05 01:09:13;;;;;;;2.70;1.57;;;27.90;48.30;;;;;;5042304;28;89797;-62
2023/09/05 01:11:43;;;;;;;1.43;1.20;;;27.80;48.20;;;;;;5039745;28;87759;-62
2023/09/05 01:14:11;;;;;;;1.30;1.20;;;27.80;48.90;;;;;;5043098;28;89585;-62
2023/09/05 01:16:43;;;;;;;3.67;1.30;;;27.80;48.30;;;;;;5042699;28;88045;-62
2023/09/05 01:19:14;;;;;;;2.10;1.10;;;27.80;48.30;;;;;;5042345;28;88775;-62
2023/09/05 01:21:51;;;;;;;1.57;1.37;;;27.70;48.20;;;;;;5039697;28;87572;-62
2023/09/05 01:24:20;;;;;;;1.80;1.40;;;27.70;48.20;;;;;;5042220;28;89632;-63
2023/09/05 01:26:49;;;;;;;2.20;1.17;;;27.70;48.20;;;;;;5041253;28;87930;-62
2023/09/05 01:29:18;;;;;;;1.50;1.40;;;27.70;48.20;;;;;;5041715;28;87748;-62
2023/09/05 01:31:46;;;;;;;3.00;1.33;;;27.70;48.20;;;;;;5041966;27;87968;-62
2023/09/05 01:34:14;;;;;;;2.70;1.57;;;27.70;48.30;;;;;;5041582;28;88550;-63
2023/09/05 01:36:42;;;;;;;1.73;1.30;;;27.70;48.30;;;;;;5040980;28;88157;-62
2023/09/05 01:39:10;;;;;;;1.40;1.30;;;27.60;48.20;;;;;;5041916;28;88565;-62
2023/09/05 01:41:39;;;;;;;4.03;1.43;;;27.60;48.20;;;;;;5041845;28;87669;-62
2023/09/05 01:44:08;;;;;;;1.40;1.30;;;27.60;48.20;;;;;;5040943;27;89779;-62
2023/09/05 01:46:36;;;;;;;2.07;1.57;;;27.60;48.20;;;;;;5041965;28;89093;-62
2023/09/05 01:49:04;;;;;;;1.40;1.03;;;27.60;48.20;;;;;;5042443;27;89031;-62
2023/09/05 01:51:32;;;;;;;2.20;1.50;;;27.60;48.20;;;;;;5042090;28;87534;-62
2023/09/05 01:54:00;;;;;;;2.00;1.30;;;27.60;48.20;;;;;;5038971;28;89823;-62
2023/09/05 01:56:28;;;;;;;1.20;1.00;;;27.60;48.20;;;;;;5041423;28;90022;-62
2023/09/05 01:58:58;;;;;;;1.80;1.30;;;27.60;48.20;;;;;;5040743;28;89646;-62
2023/09/05 02:01:27;;;;;;;1.10;1.00;;;27.60;48.20;;;;;;5039806;28;87658;-62
2023/09/05 02:03:55;;;;;;;2.37;1.07;;;27.60;48.20;;;;;;5041805;27;89597;-62
2023/09/05 02:06:23;;;;;;;1.30;1.20;;;27.60;48.20;;;;;;5041730;28;88892;-62
2023/09/05 02:08:51;;;;;;;1.23;1.13;;;27.60;48.20;;;;;;5041626;28;87840;-62
2023/09/05 02:11:20;;;;;;;1.60;1.13;;;27.60;48.20;;;;;;5039154;28;87552;-62
2023/09/05 02:13:48;;;;;;;2.03;1.00;;;27.60;48.10;;;;;;5041390;28;88516;-62
2023/09/05 02:16:19;;;;;;;1.30;1.20;;;27.60;48.20;;;;;;5041686;28;87875;-62
2023/09/05 02:18:49;;;;;;;1.30;1.20;;;27.60;48.20;;;;;;5039315;28;89516;-62
2023/09/05 02:21:17;;;;;;;2.77;1.10;;;27.60;48.20;;;;;;5040810;27;87955;-62
2023/09/05 02:23:45;;;;;;;1.43;1.30;;;27.50;48.10;;;;;;5041178;28;89554;-62
2023/09/05 02:26:14;;;;;;;1.10;0.97;;;27.50;48.10;;;;;;5040997;28;90396;-62
2023/09/05 02:28:42;;;;;;;2.40;1.23;;;27.50;48.10;;;;;;5041213;28;87771;-62
2023/09/05 02:31:10;;;;;;;4.70;1.47;;;27.50;48.10;;;;;;5041313;28;87630;-62
2023/09/05 02:33:39;;;;;;;2.87;0.93;;;27.40;48.10;;;;;;5041168;27;89909;-62
2023/09/05 02:36:09;;;;;;;2.53;1.50;;;27.40;48.10;;;;;;5040949;28;89210;-62
2023/09/05 02:38:37;;;;;;;1.33;0.97;;;27.40;48.10;;;;;;5040430;28;88844;-62
2023/09/05 02:41:05;;;;;;;1.87;1.17;;;27.40;48.10;;;;;;5041669;28;87514;-62
2023/09/05 02:43:33;;;;;;;1.50;1.03;;;27.30;48.00;;;;;;5040154;27;87628;-62
2023/09/05 02:46:02;;;;;;;1.40;1.27;;;27.30;48.00;;;;;;5038392;28;91359;-62
2023/09/05 02:48:30;;;;;;;1.77;1.30;;;27.30;48.10;;;;;;5037666;27;89954;-62
2023/09/05 02:51:06;;;;;;;3.20;2.20;;;27.30;48.00;;;;;;5038665;28;87592;-62
2023/09/05 02:53:33;;;;;;;1.33;1.10;;;27.20;48.00;;;;;;5035781;27;89380;-62
2023/09/05 02:56:01;;;;;;;0.93;0.90;;;27.20;48.00;;;;;;5037507;27;88066;-62
2023/09/05 02:58:31;;;;;;;2.17;1.57;;;27.20;48.00;;;;;;5038107;28;89213;-62
2023/09/05 03:01:01;;;;;;;1.80;1.23;;;27.20;48.00;;;;;;5035114;28;87412;-62
2023/09/05 03:03:29;;;;;;;1.40;1.30;;;27.20;47.90;;;;;;5037790;28;89503;-62
2023/09/05 03:05:57;;;;;;;1.00;0.90;;;27.20;47.90;;;;;;5037829;28;88729;-62
2023/09/05 03:08:27;;;;;;;1.90;1.20;;;27.20;47.90;;;;;;5037807;28;88749;-62
2023/09/05 03:10:58;;;;;;;1.70;1.40;;;27.10;47.90;;;;;;5018754;28;87992;-62
2023/09/05 03:13:26;;;;;;;1.60;1.20;;;27.10;47.90;;;;;;5017561;28;89760;-62
2023/09/05 03:15:55;;;;;;;1.00;0.90;;;27.10;47.90;;;;;;5018021;28;89326;-62
2023/09/05 03:18:25;;;;;;;3.10;1.20;;;27.20;48.60;;;;;;5017258;28;88275;-62
2023/09/05 03:20:53;;;;;;;3.07;1.23;;;27.10;47.90;;;;;;5018502;28;87280;-62
2023/09/05 03:23:22;;;;;;;1.17;0.90;;;27.10;47.90;;;;;;5018473;28;89770;-62
2023/09/05 03:25:53;;;;;;;5.33;1.33;;;27.10;47.90;;;;;;5018318;28;89139;-62
2023/09/05 03:28:21;;;;;;;1.20;1.10;;;27.10;47.90;;;;;;5023640;28;88873;-62
2023/09/05 03:30:49;;;;;;;1.67;1.20;;;27.10;47.90;;;;;;5038016;28;87587;-62
2023/09/05 03:33:17;;;;;;;1.67;0.90;;;27.10;47.90;;;;;;5037845;28;88120;-62
2023/09/05 03:35:45;;;;;;;2.20;1.20;;;27.00;47.80;;;;;;5037139;28;88936;-62
2023/09/05 03:38:14;;;;;;;0.90;0.90;;;27.00;47.80;;;;;;5038251;28;89857;-62
2023/09/05 03:40:42;;;;;;;2.53;1.30;;;27.00;47.80;;;;;;5038430;28;87281;-62
2023/09/05 03:43:11;;;;;;;0.93;0.90;;;27.00;47.80;;;;;;5032942;28;89699;-62
2023/09/05 03:45:40;;;;;;;1.20;1.10;;;27.00;47.80;;;;;;5017517;28;87804;-62
2023/09/05 03:48:08;;;;;;;1.70;1.27;;;27.00;47.80;;;;;;5025538;28;88874;-62
2023/09/05 03:50:36;;;;;;;1.77;1.10;;;27.00;47.80;;;;;;5037935;28;88026;-62
2023/09/05 03:53:05;;;;;;;1.47;1.00;;;27.00;47.80;;;;;;5037880;28;89648;-62
2023/09/05 03:55:34;;;;;;;2.07;1.07;;;27.00;47.80;;;;;;5037677;28;89067;-62
2023/09/05 03:58:03;;;;;;;1.87;1.30;;;26.90;47.70;;;;;;5033926;28;87594;-62
2023/09/05 04:00:34;;;;;;;1.20;1.10;;;27.00;47.80;;;;;;5017901;28;88666;-62
2023/09/05 04:03:03;;;;;;;0.90;0.90;;;27.00;47.80;;;;;;5017429;28;89685;-62
2023/09/05 04:05:33;;;;;;;2.00;1.30;;;27.00;47.80;;;;;;5016013;28;87908;-62
2023/09/05 04:08:01;;;;;;;1.43;1.10;;;27.00;47.80;;;;;;5017078;28;88694;-62
2023/09/05 04:10:29;;;;;;;2.30;1.30;;;26.90;47.80;;;;;;5020746;27;89417;-62
2023/09/05 04:12:58;;;;;;;2.23;1.20;;;26.90;47.80;;;;;;5033469;28;89003;-62
2023/09/05 04:15:26;;;;;;;1.30;1.20;;;26.90;47.80;;;;;;5039579;28;88107;-62
2023/09/05 04:17:55;;;;;;;1.80;1.27;;;26.90;47.80;;;;;;5029495;28;87514;-62
2023/09/05 04:20:24;;;;;;;2.20;1.20;;;26.90;47.80;;;;;;5038168;28;87315;-62
2023/09/05 04:22:52;;;;;;;2.30;1.50;;;26.90;47.80;;;;;;5039725;28;89654;-62
2023/09/05 04:25:20;;;;;;;1.53;0.97;;;26.90;47.80;;;;;;5039443;28;88790;-62
2023/09/05 04:27:51;;;;;;;1.10;1.00;;;26.80;47.70;;;;;;5040499;28;88769;-62
2023/09/05 04:30:19;;;;;;;1.97;1.30;;;26.80;47.70;;;;;;5040881;27;87257;-62
2023/09/05 04:32:48;;;;;;;6.03;1.17;;;26.80;47.80;;;;;;5040299;27;89695;-62
2023/09/05 04:35:18;;;;;;;0.97;0.90;;;26.80;47.80;;;;;;5026325;27;89068;-62
2023/09/05 04:37:46;;;;;;;1.40;0.97;;;26.80;47.80;;;;;;5020105;28;88845;-62
2023/09/05 04:40:16;;;;;;;1.60;1.10;;;26.80;47.80;;;;;;5020143;28;87623;-62
2023/09/05 04:42:44;;;;;;;3.00;1.00;;;26.80;47.70;;;;;;5019300;28;89679;-62
2023/09/05 04:45:12;;;;;;;2.30;1.20;;;26.80;47.80;;;;;;5019661;28;89028;-62
2023/09/05 04:47:40;;;;;;;4.27;1.10;;;26.80;47.70;;;;;;5019110;28;88912;-62
2023/09/05 04:50:09;;;;;;;1.40;1.30;;;26.80;47.80;;;;;;5018844;28;87947;-61
2023/09/05 04:52:38;;;;;;;3.37;1.20;;;26.80;47.80;;;;;;5020198;28;89721;-62
2023/09/05 04:55:07;;;;;;;3.83;1.23;;;26.80;47.80;;;;;;5019665;28;89015;-62
2023/09/05 04:57:36;;;;;;;1.63;1.17;;;26.70;47.70;;;;;;5020602;28;89027;-62
2023/09/05 05:00:05;;;;;;;5.47;1.50;;;26.70;47.70;;;;;;5019432;28;87484;-62
2023/09/05 05:02:34;;;;;;;0.93;0.83;;;26.70;47.70;;;;;;5019099;28;89606;-62
2023/09/05 05:05:03;;;;;;;2.90;1.27;;;26.70;47.70;;;;;;5019315;28;88906;-62
2023/09/05 05:07:31;;;;;;;1.23;0.90;;;26.70;47.70;;;;;;5019075;28;88625;-62
2023/09/05 05:10:01;;;;;;;1.30;1.00;;;26.70;47.70;;;;;;5019453;28;87597;-62
2023/09/05 05:12:29;;;;;;;2.20;0.93;;;26.70;47.70;;;;;;5018961;28;89574;-62
2023/09/05 05:14:57;;;;;;;1.40;1.00;;;26.70;47.70;;;;;;5018659;28;89914;-62
2023/09/05 05:17:26;;;;;;;1.17;1.07;;;26.70;47.70;;;;;;5019169;28;89407;-62
2023/09/05 05:19:55;;;;;;;1.37;1.20;;;26.80;47.70;;;;;;5020043;28;87494;-62
2023/09/05 05:22:23;;;;;;;1.83;1.20;;;26.80;47.60;;;;;;5019974;28;89660;-62
2023/09/05 05:24:51;;;;;;;0.97;0.93;;;26.80;47.60;;;;;;5022589;28;87933;-61
2023/09/05 05:27:21;;;;;;;1.10;1.00;;;26.90;48.20;;;;;;5022502;28;87483;-62
2023/09/05 05:29:49;;;;;;;0.93;0.93;;;26.90;47.60;;;;;;5022091;28;87473;-62
2023/09/05 05:32:17;;;;;;;1.33;1.00;;;26.90;47.50;;;;;;5022280;28;88361;-61
2023/09/05 05:34:48;;;;;;;1.73;1.00;;;27.00;47.50;;;;;;5022836;28;88861;-62
2023/09/05 05:37:17;;;;;;;1.33;1.00;;;27.00;47.50;;;;;;5022926;28;88838;-62
2023/09/05 05:39:45;;;;;;;1.20;1.10;;;27.00;48.10;;;;;;5022813;28;87930;-62
2023/09/05 05:42:13;;;;;;;0.70;0.70;;;27.10;47.40;;;;;;5021473;28;89662;-62
2023/09/05 05:44:42;;;;;;;1.30;1.20;;;27.10;47.40;;;;;;5021629;28;89049;-62
2023/09/05 05:47:10;;;;;;;1.50;1.27;;;27.10;47.40;;;;;;5021947;28;87718;-61
2023/09/05 05:49:38;;;;;;;1.17;0.73;;;27.20;47.40;;;;;;5022070;28;87552;-62
2023/09/05 05:52:08;;;;;;;2.80;1.30;;;27.20;47.40;;;;;;5022136;28;89869;-62
2023/09/05 05:54:36;;;;;;;1.67;1.03;;;27.20;47.30;;;;;;5021989;28;87644;-62
2023/09/05 05:57:05;;;;;;;1.27;0.90;;;27.30;47.30;;;;;;5025208;28;88851;-62
2023/09/05 05:59:33;;;;;;;1.17;1.07;;;27.30;47.30;;;;;;5022387;28;87672;-62
2023/09/05 06:02:03;;;;;;;2.13;1.00;;;27.30;47.30;;;;;;5021803;28;89474;-62
2023/09/05 06:04:31;;;;;;;1.10;1.00;;;27.30;47.30;;;;;;5021003;28;90219;-62
2023/09/05 06:06:59;;;;;;;1.30;1.10;;;27.40;47.30;;;;;;5021668;28;89994;-62
2023/09/05 06:09:28;;;;;;;2.23;0.97;;;27.40;47.30;;;;;;5021735;28;87670;-62
2023/09/05 06:11:56;;;;;;;1.30;0.90;;;27.40;47.30;;;;;;5021306;28;88246;-62
2023/09/05 06:14:24;;;;;;;0.97;0.80;;;27.40;47.20;;;;;;5022101;28;89111;-62
2023/09/05 06:16:52;;;;;;;0.80;0.70;;;27.40;47.20;;;;;;5021749;28;88658;-62
2023/09/05 06:19:22;;;;;;;1.70;0.90;;;27.40;47.20;;;;;;5021947;28;87608;-62
2023/09/05 06:21:51;;;;;;;1.13;0.80;;;27.40;47.20;;;;;;5021524;28;88568;-61
2023/09/05 06:24:20;;;;;;;0.93;0.83;;;27.40;47.20;;;;;;5021566;28;89378;-62
2023/09/05 06:26:48;;;;;;;2.00;1.30;;;27.40;47.20;;;;;;5021699;28;87850;-62
2023/09/05 06:29:16;;;;;;;1.33;1.20;;;27.50;47.20;;;;;;5020948;28;88146;-62
2023/09/05 06:31:47;;;;;;;0.77;0.70;;;27.50;47.20;;;;;;5021228;28;89627;-62
2023/09/05 06:34:16;;;;;;;1.20;0.70;;;27.50;47.20;;;;;;5020609;28;89067;-62
2023/09/05 06:36:46;;;;;;;2.60;1.40;;;27.50;47.20;;;;;;5022010;28;89084;-62
2023/09/05 06:39:14;;;;;;;1.10;1.00;;;27.50;47.20;;;;;;5021472;28;87701;-62
2023/09/05 06:41:42;;;;;;;1.77;1.10;;;27.50;47.10;;;;;;5021589;28;89636;-61
2023/09/05 06:44:10;;;;;;;1.67;1.00;;;27.50;47.10;;;;;;5020400;28;89107;-62
2023/09/05 06:46:38;;;;;;;2.13;1.20;;;27.50;47.10;;;;;;5021693;28;88939;-62
2023/09/05 06:49:06;;;;;;;1.30;1.03;;;27.50;47.10;;;;;;5021385;28;87750;-62
2023/09/05 06:51:34;;;;;;;1.80;1.20;;;27.50;47.10;;;;;;5021533;28;88510;-62
2023/09/05 06:54:04;;;;;;;2.17;1.00;;;27.50;47.10;;;;;;5021210;28;90088;-62
2023/09/05 06:56:32;;;;;;;1.73;0.93;;;27.50;47.10;;;;;;5021629;28;89519;-62
2023/09/05 06:59:00;;;;;;;1.30;1.10;;;27.50;47.00;;;;;;5020531;28;87977;-62
2023/09/05 07:01:29;;;;;;;0.90;0.90;;;27.50;47.00;;;;;;5020777;28;89580;-62
2023/09/05 07:03:57;;;;;;;1.27;0.90;;;27.50;47.00;;;;;;5020687;28;89125;-61
2023/09/05 07:06:26;;;;;;;1.20;1.10;;;27.50;47.00;;;;;;5021696;28;88854;-62
2023/09/05 07:08:54;;;;;;;1.20;1.10;;;27.50;47.00;;;;;;5021441;28;87665;-61
2023/09/05 07:11:23;;;;;;;0.60;0.60;;;27.50;47.00;;;;;;5021155;28;88563;-62
2023/09/05 07:13:51;;;;;;;1.13;0.93;;;27.50;47.00;;;;;;5020581;28;89135;-61
2023/09/05 07:16:19;;;;;;;1.10;1.00;;;27.50;47.00;;;;;;5021404;28;87676;-62
2023/09/05 07:18:47;;;;;;;0.83;0.80;;;27.50;47.00;;;;;;5020727;28;87911;-62
2023/09/05 07:21:16;;;;;;;0.70;0.70;;;27.50;46.90;;;;;;5020789;28;89605;-62
2023/09/05 07:23:44;;;;;;;0.80;0.80;;;27.60;47.00;;;;;;5020455;28;88064;-62
2023/09/05 07:26:12;;;;;;;1.47;1.10;;;27.50;46.90;;;;;;5020386;28;88941;-62
2023/09/05 07:28:41;;;;;;;1.93;0.87;;;27.60;47.00;;;;;;5020557;28;87382;-62
2023/09/05 07:31:12;;;;;;;1.27;1.03;;;27.50;46.90;;;;;;5023382;27;89733;-62
2023/09/05 07:33:41;;;;;;;3.03;0.90;;;27.60;46.90;;;;;;5020494;28;88924;-62
2023/09/05 07:36:09;;;;;;;3.53;1.20;;;27.50;46.90;;;;;;5026734;28;87676;-62
2023/09/05 07:38:37;;;;;;;1.43;0.90;;;27.60;46.90;;;;;;5040798;28;87526;-62
2023/09/05 07:41:05;;;;;;;0.93;0.90;;;27.60;46.90;;;;;;5040417;28;89508;-62
2023/09/05 07:43:33;;;;;;;1.70;1.00;;;27.60;46.90;;;;;;5031649;27;89021;-62
2023/09/05 07:46:04;;;;;;;2.03;0.97;;;27.60;47.60;;;;;;5025864;27;89776;-62
2023/09/05 07:48:32;;;;;;;1.17;0.70;;;27.60;46.90;;;;;;5038022;28;88282;-62
2023/09/05 07:51:01;;;;;;;1.13;0.93;;;27.50;46.90;;;;;;5036070;28;88529;-62
2023/09/05 07:53:31;;;;;;;2.20;1.10;;;27.50;46.90;;;;;;5020683;28;89228;-62
2023/09/05 07:55:59;;;;;;;1.83;0.90;;;27.50;46.90;;;;;;5038033;28;88893;-62
2023/09/05 07:58:28;;;;;;;1.10;1.00;;;27.50;47.50;;;;;;5040502;27;87609;-62
2023/09/05 08:00:56;;;;;;;11.63;7.60;;;27.50;46.90;;;;;;5040838;27;89639;-62
2023/09/05 08:03:26;;;;;;;19.90;12.93;;;27.50;46.90;;;;;;5040251;27;88913;-61
2023/09/05 08:05:54;;;;;;;13.87;10.07;;;27.50;46.90;;;;;;5038962;28;89060;-62
2023/09/05 08:08:22;;;;;;;17.87;8.93;;;27.50;46.90;;;;;;5039628;27;88013;-61
2023/09/05 08:10:51;;;;;;;11.80;7.93;;;27.50;46.90;;;;;;5039123;27;88404;-62
2023/09/05 08:13:19;;;;;;;9.47;6.80;;;27.50;46.90;;;;;;5039365;28;88646;-61
2023/09/05 08:15:47;;;;;;;10.13;7.53;;;27.50;46.90;;;;;;5039956;28;88880;-62
2023/09/05 08:18:15;;;;;;;8.47;6.80;;;27.50;46.90;;;;;;5040714;27;87699;-62
2023/09/05 08:20:46;;;;;;;9.80;5.13;;;27.50;46.90;;;;;;5040110;28;88474;-62
2023/09/05 08:23:14;;;;;;;9.03;5.13;;;27.40;46.90;;;;;;5040229;27;89032;-62
2023/09/05 08:25:42;;;;;;;4.57;4.00;;;27.50;46.90;;;;;;5040565;28;88474;-61
2023/09/05 08:28:12;;;;;;;5.57;4.30;;;27.40;46.90;;;;;;5040880;28;87397;-62
2023/09/05 08:30:40;;;;;;;4.33;2.87;;;27.40;46.90;;;;;;5034945;27;88737;-61
2023/09/05 08:33:08;;;;;;;4.53;3.00;;;27.40;46.90;;;;;;5039637;28;90122;-62
2023/09/05 08:35:37;;;;;;;4.20;2.97;;;27.40;46.90;;;;;;5039948;27;89777;-62
2023/09/05 08:38:07;;;;;;;4.13;2.87;;;27.40;46.90;;;;;;5040658;28;87708;-62
2023/09/05 08:40:35;;;;;;;2.53;2.13;;;27.40;46.90;;;;;;5040158;27;89607;-61
2023/09/05 08:43:03;;;;;;;3.33;2.27;;;27.40;46.90;;;;;;5039202;28;88848;-61
2023/09/05 08:45:32;;;;;;;4.07;2.90;;;27.40;46.90;;;;;;5037200;28;90195;-62
2023/09/05 08:48:00;;;;;;;13.17;7.43;;;27.40;46.90;;;;;;5025674;28;87664;-61
2023/09/05 08:50:29;;;;;;;19.60;12.03;;;27.40;46.90;;;;;;5040066;28;88618;-62
2023/09/05 08:52:57;;;;;;;18.97;11.37;;;27.40;46.90;;;;;;5027695;28;89091;-62
2023/09/05 08:55:27;;;;;;;16.70;8.97;;;27.40;47.00;;;;;;5018616;28;88935;-62
2023/09/05 08:57:57;;;;;;;14.87;9.67;;;27.40;46.90;;;;;;5035032;27;87882;-61
2023/09/05 09:00:26;;;;;;;12.13;8.67;;;27.40;46.90;;;;;;5042914;28;88544;-61
2023/09/05 09:02:54;;;;;;;16.30;10.30;;;27.40;47.00;;;;;;5042698;28;89051;-61
2023/09/05 09:05:22;;;;;;;10.53;7.83;;;27.50;47.00;;;;;;5042364;27;89009;-61
2023/09/05 09:07:50;;;;;;;10.80;7.27;;;27.50;47.00;;;;;;5042502;28;87555;-61
2023/09/05 09:10:20;;;;;;;8.73;6.67;;;27.50;47.00;;;;;;5042693;28;89764;-61
2023/09/05 09:12:54;;;;;;;7.50;5.77;;;27.50;47.00;;;;;;5042488;28;88008;-60
2023/09/05 09:15:25;;;;;;;4.90;4.00;;;27.50;47.00;;;;;;5042889;28;88709;-56
2023/09/05 09:17:53;;;;;;;3.70;3.17;;;27.50;47.00;;;;;;5043028;27;87466;-56
2023/09/05 09:20:23;;;;;;;4.83;2.40;;;27.50;47.00;;;;;;5042879;27;89039;-56
2023/09/05 09:22:52;;;;;;;3.03;1.93;;;27.50;47.00;;;;;;5041864;27;87965;-57
2023/09/05 09:25:21;;;;;;;5.27;2.10;;;27.50;47.00;;;;;;5042607;28;88713;-57
2023/09/05 09:27:54;;;;;;;3.20;1.93;;;27.60;47.10;;;;;;5043218;28;87601;-56
2023/09/05 09:30:24;;;;;;;3.13;1.50;;;27.60;47.10;;;;;;5043134;28;89531;-56
2023/09/05 09:32:52;;;;;;;3.33;1.50;;;27.60;47.00;;;;;;5042042;27;88088;-56
2023/09/05 09:35:20;;;;;;;1.80;1.63;;;27.60;47.10;;;;;;5042788;28;88744;-56
2023/09/05 09:37:49;;;;;;;2.70;1.70;;;27.50;47.00;;;;;;5042394;28;87476;-56
2023/09/05 09:40:17;;;;;;;5.13;1.60;;;27.50;47.10;;;;;;5042637;28;89717;-56
2023/09/05 09:42:47;;;;;;;2.10;1.37;;;27.40;47.10;;;;;;5041903;28;87999;-56
2023/09/05 09:45:19;;;;;;;1.30;1.20;;;27.40;47.30;;;;;;5042315;27;87630;-56
2023/09/05 09:47:48;;;;;;;1.60;1.07;;;27.40;47.30;;;;;;5042529;27;87886;-56
2023/09/05 09:50:17;;;;;;;1.27;1.17;;;27.40;47.30;;;;;;5042760;28;89518;-57
2023/09/05 09:52:46;;;;;;;1.60;1.10;;;27.50;47.40;;;;;;5040498;28;89251;-57
2023/09/05 09:55:14;;;;;;;1.00;0.90;;;27.50;47.30;;;;;;5041361;27;87752;-57
2023/09/05 09:57:46;;;;;;;1.73;1.63;;;27.60;48.00;;;;;;5043151;27;87511;-56
2023/09/05 10:00:18;;;;;;;1.40;1.30;;;27.60;47.40;;;;;;5042657;27;88710;-56
2023/09/05 10:02:49;;;;;;;1.40;1.17;;;27.50;47.30;;;;;;5042225;27;89220;-57
2023/09/05 10:05:19;;;;;;;2.10;1.00;;;27.40;47.40;;;;;;5042211;27;87780;-56
2023/09/05 10:07:48;;;;;;;1.80;1.40;;;27.40;47.50;;;;;;5042230;28;87375;-56
2023/09/05 10:10:25;;;;;;;2.50;1.57;;;27.40;48.10;;;;;;5040900;27;88513;-57
2023/09/05 10:12:54;;;;;;;4.07;1.20;;;27.50;47.50;;;;;;5041464;28;90065;-56
2023/09/05 10:15:22;;;;;;;0.80;0.80;;;27.50;47.50;;;;;;5042214;28;89805;-56
2023/09/05 10:17:52;;;;;;;1.43;1.33;;;27.50;47.50;;;;;;5022718;28;87590;-56
2023/09/05 10:24:11;;;;;;;2.60;1.30;;;27.50;47.60;;;;;;5021701;28;87521;-56
2023/09/05 10:26:39;;;;;;;1.27;1.13;;;27.60;47.70;;;;;;5028306;27;88743;-56
2023/09/05 10:29:32;;;;;;;2.27;1.07;;;27.60;48.40;;;;;;5041683;28;87234;-57
2023/09/05 10:32:00;;;;;;;1.23;0.87;;;27.70;47.70;;;;;;5027484;27;89395;-57
2023/09/05 10:34:54;;;;;;;1.23;1.13;;;27.80;47.70;;;;;;5021856;28;88079;-56
2023/09/05 10:37:23;;;;;;;3.47;1.10;;;27.80;47.60;;;;;;5021436;28;88843;-56
2023/09/05 10:39:54;;;;;;;1.13;0.90;;;27.80;47.60;;;;;;5021398;28;87959;-56
2023/09/05 10:42:28;;;;;;;1.10;0.80;;;27.90;47.60;;;;;;5020952;28;88454;-57
2023/09/05 10:44:56;;;;;;;4.87;1.10;;;27.90;47.50;;;;;;5021721;28;89047;-57
2023/09/05 10:47:25;;;;;;;2.00;1.00;;;28.00;47.50;;;;;;5021455;28;89035;-57
2023/09/05 10:49:59;;;;;;;1.70;1.37;;;28.00;47.50;;;;;;5021410;28;88006;-57
2023/09/05 10:52:29;;;;;;;3.63;1.20;;;28.00;47.40;;;;;;5021118;28;89244;-56
2023/09/05 10:54:58;;;;;;;1.10;0.93;;;28.10;47.40;;;;;;5021481;28;89273;-57
2023/09/05 10:57:39;;;;;;;1.73;0.93;;;28.20;47.40;;;;;;5021985;28;88808;-56
2023/09/05 11:00:37;;;;;;;1.90;1.07;;;28.20;47.40;;;;;;5021652;28;87614;-56
2023/09/05 11:03:12;;;;;;;1.80;1.20;;;28.20;47.40;;;;;;5017041;28;88733;-56
2023/09/05 11:05:51;;;;;;;1.40;1.10;;;28.20;47.30;;;;;;5019563;28;90011;-56
2023/09/05 11:08:20;;;;;;;1.43;1.10;;;28.30;47.40;;;;;;5020752;28;89809;-57
2023/09/05 11:10:53;;;;;;;0.80;0.80;;;28.30;47.40;;;;;;5021631;28;87661;-57
2023/09/05 11:13:21;;;;;;;1.63;0.90;;;28.30;47.30;;;;;;5021476;28;89686;-56
2023/09/05 11:15:58;;;;;;;1.70;1.10;;;28.40;47.30;;;;;;5020684;28;88031;-56
2023/09/05 11:18:26;;;;;;;1.37;0.97;;;28.50;47.40;;;;;;5020686;28;88713;-56
2023/09/05 11:20:58;;;;;;;1.20;1.10;;;28.50;47.90;;;;;;5020879;28;87194;-56
2023/09/05 11:23:27;;;;;;;2.77;1.23;;;28.50;47.90;;;;;;5021823;28;89674;-56
2023/09/05 11:25:56;;;;;;;1.20;1.10;;;28.50;47.30;;;;;;5020785;28;89088;-56
2023/09/05 15:16:25;;;;;;;1.03;0.90;;;30.80;45.60;;;;;;5080216;22;90529;-55
2023/09/05 15:18:53;;;;;;;1.93;0.90;;;30.80;45.50;;;;;;5080548;27;89175;-53
2023/09/05 15:21:22;;;;;;;2.63;1.13;;;30.80;45.50;;;;;;5081694;27;88770;-52
2023/09/05 15:23:50;;;;;;;1.60;1.10;;;31.00;45.60;;;;;;5081944;27;87679;-52
2023/09/05 15:26:18;;;;;;;1.40;0.80;;;30.90;45.50;;;;;;5081720;27;88553;-55
2023/09/05 15:28:46;;;;;;;1.50;0.73;;;31.00;45.40;;;;;;5078469;27;87911;-55
2023/09/05 15:31:14;;;;;;;1.70;0.57;;;31.00;45.30;;;;;;5079891;27;88489;-53
2023/09/05 15:33:44;;;;;;;0.87;0.60;;;31.00;45.20;;;;;;5077460;27;87847;-53
2023/09/05 15:36:12;;;;;;;0.70;0.70;;;30.90;45.80;;;;;;5078827;27;88353;-53
2023/09/05 15:38:41;;;;;;;2.13;0.90;;;31.00;45.10;;;;;;5079535;27;88054;-53
2023/09/05 15:41:09;;;;;;;1.20;0.80;;;31.00;45.10;;;;;;5079159;27;88085;-54
2023/09/05 15:43:37;;;;;;;1.00;0.80;;;31.10;45.20;;;;;;5078090;27;87589;-53
2023/09/05 15:46:05;;;;;;;2.07;0.97;;;31.10;45.20;;;;;;5079219;27;88637;-53
2023/09/05 15:48:34;;;;;;;1.40;1.23;;;31.00;45.10;;;;;;5078638;27;90774;-54
2023/09/05 15:51:05;;;;;;;0.80;0.70;;;31.10;45.20;;;;;;5079070;27;89066;-53
2023/09/05 15:53:33;;;;;;;0.70;0.70;;;31.10;45.20;;;;;;5079004;27;87526;-53
2023/09/05 15:56:01;;;;;;;1.10;0.87;;;31.10;45.20;;;;;;5078463;27;88203;-54
2023/09/05 15:58:30;;;;;;;1.27;0.90;;;31.20;45.30;;;;;;5077696;27;89972;-54
2023/09/05 16:00:58;;;;;;;2.80;1.10;;;31.10;45.20;;;;;;5077816;27;88509;-54
2023/09/05 16:03:26;;;;;;;2.20;0.97;;;31.20;45.30;;;;;;5070504;27;87721;-54
2023/09/05 16:05:55;;;;;;;1.07;0.77;;;31.20;45.30;;;;;;5059449;27;89160;-57
2023/09/05 16:08:26;;;;;;;3.70;1.20;;;31.20;45.30;;;;;;5067425;27;89065;-54
2023/09/05 16:11:07;;;;;;;1.57;1.10;;;31.30;45.40;;;;;;5077748;27;88567;-56
2023/09/05 16:13:35;;;;;;;0.97;0.83;;;31.30;45.40;;;;;;5076737;27;87793;-55
2023/09/05 16:16:03;;;;;;;1.00;0.90;;;31.40;45.50;;;;;;5077697;27;88718;-54
2023/09/05 16:18:31;;;;;;;0.70;0.70;;;31.40;45.60;;;;;;5076860;27;88139;-54
2023/09/05 16:20:59;;;;;;;1.93;1.17;;;31.40;45.70;;;;;;5077884;27;87745;-55
2023/09/05 16:23:29;;;;;;;2.07;1.00;;;31.40;45.80;;;;;;5077218;27;88754;-56
2023/09/05 16:25:57;;;;;;;1.73;1.07;;;31.40;46.00;;;;;;5077948;27;87509;-58
2023/09/05 16:28:26;;;;;;;1.87;1.30;;;31.50;46.20;;;;;;5076330;27;88598;-56
2023/09/05 16:30:56;;;;;;;4.03;1.03;;;31.60;46.40;;;;;;5076490;27;87690;-59
2023/09/05 16:33:24;;;;;;;2.07;1.00;;;31.60;46.70;;;;;;5074805;27;88336;-57
2023/09/05 16:35:59;;;;;;;14.67;7.03;;;31.70;47.00;;;;;;5076858;27;87778;-57
2023/09/05 16:38:29;;;;;;;11.10;6.10;;;31.60;47.90;;;;;;5074635;27;89268;-56
2023/09/05 16:40:57;;;;;;;12.43;7.30;;;31.70;47.40;;;;;;5073244;27;88950;-59
2023/09/05 16:43:25;;;;;;;12.30;6.73;;;31.70;48.20;;;;;;5077019;27;87541;-56
2023/09/05 16:45:54;;;;;;;9.40;5.50;;;31.70;47.70;;;;;;5077029;27;88636;-56
2023/09/05 16:48:22;;;;;;;4.87;3.37;;;31.70;47.80;;;;;;5076626;27;89178;-55